sensor_id;sensor_type;location;lat;lon;timestamp;P1;durP1;ratioP1;P2;durP2;ratioP2
20621;SDS011;10470;42.670;23.354;2022-07-29T00:02:03;11.40;;;10.23;;
20621;SDS011;10470;42.670;23.354;2022-07-29T00:04:28;11.37;;;10.17;;
20621;SDS011;10470;42.670;23.354;2022-07-29T00:06:54;11.40;;;10.17;;
20621;SDS011;10470;42.670;23.354;2022-07-29T00:09:19;11.30;;;10.10;;
20621;SDS011;10470;42.670;23.354;2022-07-29T00:11:44;11.47;;;10.20;;
20621;SDS011;10470;42.670;23.354;2022-07-29T00:14:10;11.23;;;9.97;;
20621;SDS011;10470;42.670;23.354;2022-07-29T00:16:36;10.00;;;9.00;;
20621;SDS011;10470;42.670;23.354;2022-07-29T00:19:02;10.80;;;9.80;;
20621;SDS011;10470;42.670;23.354;2022-07-29T00:21:28;10.00;;;9.07;;
20621;SDS011;10470;42.670;23.354;2022-07-29T00:23:53;10.60;;;9.60;;
20621;SDS011;10470;42.670;23.354;2022-07-29T00:26:19;10.40;;;8.67;;
20621;SDS011;10470;42.670;23.354;2022-07-29T00:28:44;9.70;;;8.73;;
20621;SDS011;10470;42.670;23.354;2022-07-29T00:31:09;9.50;;;8.70;;
20621;SDS011;10470;42.670;23.354;2022-07-29T00:33:35;9.83;;;8.90;;
20621;SDS011;10470;42.670;23.354;2022-07-29T00:36:01;12.53;;;9.50;;
20621;SDS011;10470;42.670;23.354;2022-07-29T00:38:26;10.10;;;9.13;;
20621;SDS011;10470;42.670;23.354;2022-07-29T00:40:52;10.33;;;9.33;;
20621;SDS011;10470;42.670;23.354;2022-07-29T00:43:17;10.80;;;9.60;;
20621;SDS011;10470;42.670;23.354;2022-07-29T00:45:43;11.13;;;10.03;;
20621;SDS011;10470;42.670;23.354;2022-07-29T00:48:09;11.97;;;9.53;;
20621;SDS011;10470;42.670;23.354;2022-07-29T00:50:35;11.07;;;9.97;;
20621;SDS011;10470;42.670;23.354;2022-07-29T00:53:02;10.13;;;8.93;;
20621;SDS011;10470;42.670;23.354;2022-07-29T00:55:29;12.40;;;9.70;;
20621;SDS011;10470;42.670;23.354;2022-07-29T00:57:55;10.33;;;9.43;;
20621;SDS011;10470;42.670;23.354;2022-07-29T01:00:24;10.20;;;9.17;;
20621;SDS011;10470;42.670;23.354;2022-07-29T01:02:50;10.30;;;9.30;;
20621;SDS011;10470;42.670;23.354;2022-07-29T01:05:20;11.50;;;9.77;;
20621;SDS011;10470;42.670;23.354;2022-07-29T01:07:50;23.90;;;10.83;;
20621;SDS011;10470;42.670;23.354;2022-07-29T01:10:18;11.57;;;10.30;;
20621;SDS011;10470;42.670;23.354;2022-07-29T01:12:46;11.87;;;10.47;;
20621;SDS011;10470;42.670;23.354;2022-07-29T01:15:14;13.57;;;12.17;;
20621;SDS011;10470;42.670;23.354;2022-07-29T01:17:44;13.77;;;12.37;;
20621;SDS011;10470;42.670;23.354;2022-07-29T01:20:18;13.53;;;12.13;;
20621;SDS011;10470;42.670;23.354;2022-07-29T01:31:16;14.50;;;13.07;;
20621;SDS011;10470;42.670;23.354;2022-07-29T01:33:49;15.13;;;13.53;;
20621;SDS011;10470;42.670;23.354;2022-07-29T01:36:28;15.33;;;13.70;;
20621;SDS011;10470;42.670;23.354;2022-07-29T01:44:41;15.37;;;13.77;;
20621;SDS011;10470;42.670;23.354;2022-07-29T01:47:17;16.10;;;13.70;;
20621;SDS011;10470;42.670;23.354;2022-07-29T01:49:47;16.43;;;13.77;;
20621;SDS011;10470;42.670;23.354;2022-07-29T01:52:20;16.10;;;14.43;;
20621;SDS011;10470;42.670;23.354;2022-07-29T01:54:53;17.93;;;15.67;;
20621;SDS011;10470;42.670;23.354;2022-07-29T01:57:24;18.13;;;16.20;;
20621;SDS011;10470;42.670;23.354;2022-07-29T01:59:53;18.00;;;16.27;;
20621;SDS011;10470;42.670;23.354;2022-07-29T02:02:20;17.37;;;15.57;;
20621;SDS011;10470;42.670;23.354;2022-07-29T02:04:48;18.47;;;16.57;;
20621;SDS011;10470;42.670;23.354;2022-07-29T02:07:17;17.30;;;15.13;;
20621;SDS011;10470;42.670;23.354;2022-07-29T02:09:44;17.00;;;15.13;;
20621;SDS011;10470;42.670;23.354;2022-07-29T02:12:12;17.37;;;15.57;;
20621;SDS011;10470;42.670;23.354;2022-07-29T02:14:47;17.77;;;15.97;;
20621;SDS011;10470;42.670;23.354;2022-07-29T02:17:17;17.33;;;15.63;;
20621;SDS011;10470;42.670;23.354;2022-07-29T02:19:59;16.63;;;14.93;;
20621;SDS011;10470;42.670;23.354;2022-07-29T02:22:26;18.20;;;15.13;;
20621;SDS011;10470;42.670;23.354;2022-07-29T02:24:55;16.57;;;14.77;;
20621;SDS011;10470;42.670;23.354;2022-07-29T02:27:21;16.50;;;14.73;;
20621;SDS011;10470;42.670;23.354;2022-07-29T02:29:48;17.77;;;14.90;;
20621;SDS011;10470;42.670;23.354;2022-07-29T02:32:16;19.67;;;15.57;;
20621;SDS011;10470;42.670;23.354;2022-07-29T02:34:42;17.63;;;15.40;;
20621;SDS011;10470;42.670;23.354;2022-07-29T02:37:09;17.53;;;15.77;;
20621;SDS011;10470;42.670;23.354;2022-07-29T02:39:36;16.97;;;14.60;;
20621;SDS011;10470;42.670;23.354;2022-07-29T02:42:05;16.17;;;14.57;;
20621;SDS011;10470;42.670;23.354;2022-07-29T02:44:35;15.87;;;14.30;;
20621;SDS011;10470;42.670;23.354;2022-07-29T02:47:10;13.20;;;11.80;;
20621;SDS011;10470;42.670;23.354;2022-07-29T02:49:55;12.60;;;11.27;;
20621;SDS011;10470;42.670;23.354;2022-07-29T02:55:00;13.47;;;11.33;;
20621;SDS011;10470;42.670;23.354;2022-07-29T02:57:33;12.93;;;11.50;;
20621;SDS011;10470;42.670;23.354;2022-07-29T03:00:01;12.57;;;11.30;;
20621;SDS011;10470;42.670;23.354;2022-07-29T03:02:31;12.07;;;10.97;;
20621;SDS011;10470;42.670;23.354;2022-07-29T03:05:00;16.20;;;11.73;;
20621;SDS011;10470;42.670;23.354;2022-07-29T03:07:28;12.63;;;9.87;;
20621;SDS011;10470;42.670;23.354;2022-07-29T03:09:55;14.40;;;9.47;;
20621;SDS011;10470;42.670;23.354;2022-07-29T03:12:20;10.17;;;8.90;;
20621;SDS011;10470;42.670;23.354;2022-07-29T03:14:47;11.90;;;9.00;;
20621;SDS011;10470;42.670;23.354;2022-07-29T03:17:13;9.80;;;8.80;;
20621;SDS011;10470;42.670;23.354;2022-07-29T03:19:40;14.13;;;12.63;;
20621;SDS011;10470;42.670;23.354;2022-07-29T03:22:06;13.53;;;11.27;;
20621;SDS011;10470;42.670;23.354;2022-07-29T03:24:33;14.37;;;12.70;;
20621;SDS011;10470;42.670;23.354;2022-07-29T03:27:00;13.40;;;11.73;;
20621;SDS011;10470;42.670;23.354;2022-07-29T03:29:27;13.73;;;11.20;;
20621;SDS011;10470;42.670;23.354;2022-07-29T03:31:53;12.80;;;11.30;;
20621;SDS011;10470;42.670;23.354;2022-07-29T03:34:19;19.60;;;12.10;;
20621;SDS011;10470;42.670;23.354;2022-07-29T03:36:45;15.17;;;13.57;;
20621;SDS011;10470;42.670;23.354;2022-07-29T03:39:11;16.13;;;13.53;;
20621;SDS011;10470;42.670;23.354;2022-07-29T03:41:42;14.60;;;13.10;;
20621;SDS011;10470;42.670;23.354;2022-07-29T03:44:11;15.67;;;14.00;;
20621;SDS011;10470;42.670;23.354;2022-07-29T03:46:40;16.27;;;13.67;;
20621;SDS011;10470;42.670;23.354;2022-07-29T03:49:08;15.90;;;13.80;;
20621;SDS011;10470;42.670;23.354;2022-07-29T03:51:35;15.53;;;13.93;;
20621;SDS011;10470;42.670;23.354;2022-07-29T03:54:02;15.37;;;13.77;;
20621;SDS011;10470;42.670;23.354;2022-07-29T03:56:28;15.43;;;13.83;;
20621;SDS011;10470;42.670;23.354;2022-07-29T03:58:56;17.30;;;13.10;;
20621;SDS011;10470;42.670;23.354;2022-07-29T04:01:21;17.30;;;14.10;;
20621;SDS011;10470;42.670;23.354;2022-07-29T04:03:47;16.73;;;13.97;;
20621;SDS011;10470;42.670;23.354;2022-07-29T04:06:13;15.90;;;14.20;;
20621;SDS011;10470;42.670;23.354;2022-07-29T04:08:39;16.63;;;13.67;;
20621;SDS011;10470;42.670;23.354;2022-07-29T04:11:05;15.33;;;13.00;;
20621;SDS011;10470;42.670;23.354;2022-07-29T04:13:31;15.03;;;12.77;;
20621;SDS011;10470;42.670;23.354;2022-07-29T04:15:57;14.60;;;13.10;;
20621;SDS011;10470;42.670;23.354;2022-07-29T04:18:23;15.67;;;13.20;;
20621;SDS011;10470;42.670;23.354;2022-07-29T04:20:49;15.53;;;13.20;;
20621;SDS011;10470;42.670;23.354;2022-07-29T04:23:15;15.37;;;13.20;;
20621;SDS011;10470;42.670;23.354;2022-07-29T04:25:41;15.90;;;13.17;;
20621;SDS011;10470;42.670;23.354;2022-07-29T04:28:07;15.00;;;13.27;;
20621;SDS011;10470;42.670;23.354;2022-07-29T04:30:33;15.17;;;13.30;;
20621;SDS011;10470;42.670;23.354;2022-07-29T04:33:01;16.70;;;12.87;;
20621;SDS011;10470;42.670;23.354;2022-07-29T04:35:28;15.07;;;11.43;;
20621;SDS011;10470;42.670;23.354;2022-07-29T04:37:54;13.20;;;10.90;;
20621;SDS011;10470;42.670;23.354;2022-07-29T04:40:20;15.87;;;12.47;;
20621;SDS011;10470;42.670;23.354;2022-07-29T04:42:45;12.93;;;11.73;;
20621;SDS011;10470;42.670;23.354;2022-07-29T04:45:11;16.60;;;12.17;;
20621;SDS011;10470;42.670;23.354;2022-07-29T04:47:36;13.67;;;12.33;;
20621;SDS011;10470;42.670;23.354;2022-07-29T04:50:02;13.43;;;12.13;;
20621;SDS011;10470;42.670;23.354;2022-07-29T04:52:28;13.03;;;11.63;;
20621;SDS011;10470;42.670;23.354;2022-07-29T04:54:54;15.10;;;12.10;;
20621;SDS011;10470;42.670;23.354;2022-07-29T04:57:19;16.83;;;11.73;;
20621;SDS011;10470;42.670;23.354;2022-07-29T04:59:45;13.63;;;11.00;;
20621;SDS011;10470;42.670;23.354;2022-07-29T05:02:10;11.83;;;10.63;;
20621;SDS011;10470;42.670;23.354;2022-07-29T05:04:35;13.37;;;10.60;;
20621;SDS011;10470;42.670;23.354;2022-07-29T05:07:01;11.83;;;10.60;;
20621;SDS011;10470;42.670;23.354;2022-07-29T05:09:26;12.27;;;10.80;;
20621;SDS011;10470;42.670;23.354;2022-07-29T05:11:52;12.50;;;9.80;;
20621;SDS011;10470;42.670;23.354;2022-07-29T05:14:17;11.57;;;9.67;;
20621;SDS011;10470;42.670;23.354;2022-07-29T05:16:43;13.40;;;10.03;;
20621;SDS011;10470;42.670;23.354;2022-07-29T05:19:08;11.33;;;9.53;;
20621;SDS011;10470;42.670;23.354;2022-07-29T05:21:34;13.10;;;9.93;;
20621;SDS011;10470;42.670;23.354;2022-07-29T05:23:59;14.83;;;10.43;;
20621;SDS011;10470;42.670;23.354;2022-07-29T05:26:25;13.73;;;9.10;;
20621;SDS011;10470;42.670;23.354;2022-07-29T05:28:50;10.23;;;9.07;;
20621;SDS011;10470;42.670;23.354;2022-07-29T05:31:16;12.00;;;9.20;;
20621;SDS011;10470;42.670;23.354;2022-07-29T05:33:41;11.63;;;8.83;;
20621;SDS011;10470;42.670;23.354;2022-07-29T05:36:07;13.43;;;9.17;;
20621;SDS011;10470;42.670;23.354;2022-07-29T05:38:33;10.50;;;9.40;;
20621;SDS011;10470;42.670;23.354;2022-07-29T05:40:59;11.17;;;8.40;;
20621;SDS011;10470;42.670;23.354;2022-07-29T05:43:26;10.33;;;8.80;;
20621;SDS011;10470;42.670;23.354;2022-07-29T05:45:55;12.97;;;9.03;;
20621;SDS011;10470;42.670;23.354;2022-07-29T05:48:20;10.07;;;9.07;;
20621;SDS011;10470;42.670;23.354;2022-07-29T05:50:46;10.87;;;9.33;;
20621;SDS011;10470;42.670;23.354;2022-07-29T05:53:11;12.13;;;8.90;;
20621;SDS011;10470;42.670;23.354;2022-07-29T05:55:37;10.07;;;8.17;;
20621;SDS011;10470;42.670;23.354;2022-07-29T05:58:02;10.33;;;8.20;;
20621;SDS011;10470;42.670;23.354;2022-07-29T06:00:28;8.63;;;7.50;;
20621;SDS011;10470;42.670;23.354;2022-07-29T06:02:53;8.77;;;7.87;;
20621;SDS011;10470;42.670;23.354;2022-07-29T06:05:18;8.63;;;7.73;;
20621;SDS011;10470;42.670;23.354;2022-07-29T06:07:44;8.87;;;7.57;;
20621;SDS011;10470;42.670;23.354;2022-07-29T06:10:09;8.83;;;7.73;;
20621;SDS011;10470;42.670;23.354;2022-07-29T06:12:35;8.53;;;7.73;;
20621;SDS011;10470;42.670;23.354;2022-07-29T06:15:01;11.90;;;7.83;;
20621;SDS011;10470;42.670;23.354;2022-07-29T06:17:27;9.97;;;7.50;;
20621;SDS011;10470;42.670;23.354;2022-07-29T06:19:52;8.40;;;7.60;;
20621;SDS011;10470;42.670;23.354;2022-07-29T06:22:18;10.60;;;7.90;;
20621;SDS011;10470;42.670;23.354;2022-07-29T06:24:43;10.33;;;7.90;;
20621;SDS011;10470;42.670;23.354;2022-07-29T06:27:12;9.03;;;7.00;;
20621;SDS011;10470;42.670;23.354;2022-07-29T06:29:37;9.40;;;7.57;;
20621;SDS011;10470;42.670;23.354;2022-07-29T06:32:03;8.73;;;7.13;;
20621;SDS011;10470;42.670;23.354;2022-07-29T06:34:29;8.87;;;7.83;;
20621;SDS011;10470;42.670;23.354;2022-07-29T06:36:54;10.33;;;7.87;;
20621;SDS011;10470;42.670;23.354;2022-07-29T06:39:20;8.80;;;7.90;;
20621;SDS011;10470;42.670;23.354;2022-07-29T06:41:46;9.93;;;8.30;;
20621;SDS011;10470;42.670;23.354;2022-07-29T06:44:16;8.53;;;7.63;;
20621;SDS011;10470;42.670;23.354;2022-07-29T06:46:43;9.43;;;7.53;;
20621;SDS011;10470;42.670;23.354;2022-07-29T06:49:08;9.27;;;8.37;;
20621;SDS011;10470;42.670;23.354;2022-07-29T06:51:35;8.37;;;7.30;;
20621;SDS011;10470;42.670;23.354;2022-07-29T06:54:01;10.40;;;7.70;;
20621;SDS011;10470;42.670;23.354;2022-07-29T06:56:30;11.10;;;7.20;;
20621;SDS011;10470;42.670;23.354;2022-07-29T06:58:56;10.97;;;6.77;;
20621;SDS011;10470;42.670;23.354;2022-07-29T07:01:22;7.17;;;6.47;;
20621;SDS011;10470;42.670;23.354;2022-07-29T07:03:47;7.57;;;6.50;;
20621;SDS011;10470;42.670;23.354;2022-07-29T07:06:13;8.13;;;7.10;;
20621;SDS011;10470;42.670;23.354;2022-07-29T07:08:38;7.20;;;6.37;;
20621;SDS011;10470;42.670;23.354;2022-07-29T07:11:04;6.90;;;6.20;;
20621;SDS011;10470;42.670;23.354;2022-07-29T07:13:31;8.17;;;6.43;;
20621;SDS011;10470;42.670;23.354;2022-07-29T07:15:59;8.63;;;6.70;;
20621;SDS011;10470;42.670;23.354;2022-07-29T07:18:26;6.50;;;5.73;;
20621;SDS011;10470;42.670;23.354;2022-07-29T07:20:51;6.83;;;6.13;;
20621;SDS011;10470;42.670;23.354;2022-07-29T07:23:17;6.20;;;5.67;;
20621;SDS011;10470;42.670;23.354;2022-07-29T07:25:42;9.13;;;5.90;;
20621;SDS011;10470;42.670;23.354;2022-07-29T07:28:07;8.20;;;5.43;;
20621;SDS011;10470;42.670;23.354;2022-07-29T07:30:33;6.50;;;5.53;;
20621;SDS011;10470;42.670;23.354;2022-07-29T07:32:59;5.90;;;5.00;;
20621;SDS011;10470;42.670;23.354;2022-07-29T07:35:25;7.93;;;5.33;;
20621;SDS011;10470;42.670;23.354;2022-07-29T07:37:52;8.27;;;6.10;;
20621;SDS011;10470;42.670;23.354;2022-07-29T07:40:18;6.20;;;5.20;;
20621;SDS011;10470;42.670;23.354;2022-07-29T07:42:43;5.40;;;4.90;;
20621;SDS011;10470;42.670;23.354;2022-07-29T07:45:09;7.10;;;4.97;;
20621;SDS011;10470;42.670;23.354;2022-07-29T07:47:36;5.63;;;5.13;;
20621;SDS011;10470;42.670;23.354;2022-07-29T07:50:03;6.30;;;5.20;;
20621;SDS011;10470;42.670;23.354;2022-07-29T07:52:29;5.27;;;4.77;;
20621;SDS011;10470;42.670;23.354;2022-07-29T07:54:55;5.10;;;4.70;;
20621;SDS011;10470;42.670;23.354;2022-07-29T07:57:20;7.03;;;4.70;;
20621;SDS011;10470;42.670;23.354;2022-07-29T07:59:46;6.30;;;4.80;;
20621;SDS011;10470;42.670;23.354;2022-07-29T08:02:11;5.83;;;4.87;;
20621;SDS011;10470;42.670;23.354;2022-07-29T08:04:37;5.70;;;5.00;;
20621;SDS011;10470;42.670;23.354;2022-07-29T08:07:05;5.00;;;4.60;;
20621;SDS011;10470;42.670;23.354;2022-07-29T08:09:30;5.53;;;4.90;;
20621;SDS011;10470;42.670;23.354;2022-07-29T08:11:56;5.10;;;4.70;;
20621;SDS011;10470;42.670;23.354;2022-07-29T08:14:23;6.80;;;4.43;;
20621;SDS011;10470;42.670;23.354;2022-07-29T08:16:49;5.20;;;4.70;;
20621;SDS011;10470;42.670;23.354;2022-07-29T08:19:14;6.07;;;4.87;;
20621;SDS011;10470;42.670;23.354;2022-07-29T08:21:40;5.67;;;4.50;;
20621;SDS011;10470;42.670;23.354;2022-07-29T08:24:06;5.10;;;4.17;;
20621;SDS011;10470;42.670;23.354;2022-07-29T08:26:50;9.63;;;5.10;;
20621;SDS011;10470;42.670;23.354;2022-07-29T08:29:15;6.47;;;4.60;;
20621;SDS011;10470;42.670;23.354;2022-07-29T08:31:41;7.73;;;4.20;;
20621;SDS011;10470;42.670;23.354;2022-07-29T08:34:07;6.40;;;4.10;;
20621;SDS011;10470;42.670;23.354;2022-07-29T08:36:33;5.07;;;3.73;;
20621;SDS011;10470;42.670;23.354;2022-07-29T08:38:59;3.97;;;3.67;;
20621;SDS011;10470;42.670;23.354;2022-07-29T08:41:25;6.73;;;4.27;;
20621;SDS011;10470;42.670;23.354;2022-07-29T08:43:51;6.03;;;3.60;;
20621;SDS011;10470;42.670;23.354;2022-07-29T08:46:18;5.50;;;3.93;;
20621;SDS011;10470;42.670;23.354;2022-07-29T08:48:45;5.67;;;3.60;;
20621;SDS011;10470;42.670;23.354;2022-07-29T08:51:14;5.13;;;3.57;;
20621;SDS011;10470;42.670;23.354;2022-07-29T08:53:44;4.10;;;3.50;;
20621;SDS011;10470;42.670;23.354;2022-07-29T08:56:16;5.53;;;3.63;;
20621;SDS011;10470;42.670;23.354;2022-07-29T08:58:43;4.57;;;3.33;;
20621;SDS011;10470;42.670;23.354;2022-07-29T09:01:10;4.07;;;3.70;;
20621;SDS011;10470;42.670;23.354;2022-07-29T09:03:39;3.93;;;3.57;;
20621;SDS011;10470;42.670;23.354;2022-07-29T09:06:06;4.00;;;3.70;;
20621;SDS011;10470;42.670;23.354;2022-07-29T09:08:32;6.20;;;3.60;;
20621;SDS011;10470;42.670;23.354;2022-07-29T09:11:00;4.20;;;3.90;;
20621;SDS011;10470;42.670;23.354;2022-07-29T09:13:27;4.50;;;3.90;;
20621;SDS011;10470;42.670;23.354;2022-07-29T09:15:52;4.03;;;3.73;;
20621;SDS011;10470;42.670;23.354;2022-07-29T09:18:35;4.40;;;4.00;;
20621;SDS011;10470;42.670;23.354;2022-07-29T09:21:03;6.10;;;3.70;;
20621;SDS011;10470;42.670;23.354;2022-07-29T09:26:38;6.60;;;3.80;;
20621;SDS011;10470;42.670;23.354;2022-07-29T09:29:15;4.47;;;3.97;;
20621;SDS011;10470;42.670;23.354;2022-07-29T09:31:43;4.67;;;4.10;;
20621;SDS011;10470;42.670;23.354;2022-07-29T09:34:10;6.20;;;4.20;;
20621;SDS011;10470;42.670;23.354;2022-07-29T09:36:40;5.30;;;3.87;;
20621;SDS011;10470;42.670;23.354;2022-07-29T09:39:07;4.40;;;4.00;;
20621;SDS011;10470;42.670;23.354;2022-07-29T09:41:46;4.30;;;3.90;;
20621;SDS011;10470;42.670;23.354;2022-07-29T09:44:22;5.17;;;4.77;;
20621;SDS011;10470;42.670;23.354;2022-07-29T09:46:56;6.77;;;5.33;;
20621;SDS011;10470;42.670;23.354;2022-07-29T09:49:23;5.97;;;4.43;;
20621;SDS011;10470;42.670;23.354;2022-07-29T09:52:06;6.37;;;4.10;;
20621;SDS011;10470;42.670;23.354;2022-07-29T09:54:33;4.60;;;4.10;;
20621;SDS011;10470;42.670;23.354;2022-07-29T09:57:03;5.23;;;3.90;;
20621;SDS011;10470;42.670;23.354;2022-07-29T09:59:37;3.87;;;3.57;;
20621;SDS011;10470;42.670;23.354;2022-07-29T10:02:13;5.07;;;4.30;;
20621;SDS011;10470;42.670;23.354;2022-07-29T10:04:42;4.80;;;4.40;;
20621;SDS011;10470;42.670;23.354;2022-07-29T10:07:08;4.63;;;4.33;;
20621;SDS011;10470;42.670;23.354;2022-07-29T10:09:34;5.13;;;4.30;;
20621;SDS011;10470;42.670;23.354;2022-07-29T10:14:30;6.33;;;4.17;;
20621;SDS011;10470;42.670;23.354;2022-07-29T10:16:58;6.03;;;4.33;;
20621;SDS011;10470;42.670;23.354;2022-07-29T10:19:25;5.63;;;3.90;;
20621;SDS011;10470;42.670;23.354;2022-07-29T10:21:50;4.80;;;3.83;;
20621;SDS011;10470;42.670;23.354;2022-07-29T10:24:16;4.40;;;4.00;;
20621;SDS011;10470;42.670;23.354;2022-07-29T10:26:43;4.33;;;3.93;;
20621;SDS011;10470;42.670;23.354;2022-07-29T10:29:11;4.27;;;3.87;;
20621;SDS011;10470;42.670;23.354;2022-07-29T10:31:41;4.13;;;3.70;;
20621;SDS011;10470;42.670;23.354;2022-07-29T10:34:18;3.90;;;3.60;;
20621;SDS011;10470;42.670;23.354;2022-07-29T10:40:09;3.47;;;3.17;;
20621;SDS011;10470;42.670;23.354;2022-07-29T10:42:59;4.73;;;3.27;;
20621;SDS011;10470;42.670;23.354;2022-07-29T10:45:42;3.43;;;3.20;;
20621;SDS011;10470;42.670;23.354;2022-07-29T10:48:10;5.00;;;3.60;;
20621;SDS011;10470;42.670;23.354;2022-07-29T10:50:55;3.43;;;3.13;;
20621;SDS011;10470;42.670;23.354;2022-07-29T10:53:45;4.10;;;3.70;;
20621;SDS011;10470;42.670;23.354;2022-07-29T10:56:32;4.17;;;3.33;;
20621;SDS011;10470;42.670;23.354;2022-07-29T11:01:45;3.60;;;3.23;;
20621;SDS011;10470;42.670;23.354;2022-07-29T11:04:11;4.65;;;3.80;;
20621;SDS011;10470;42.670;23.354;2022-07-29T11:09:31;5.20;;;3.80;;
20621;SDS011;10470;42.670;23.354;2022-07-29T11:11:57;4.00;;;3.80;;
20621;SDS011;10470;42.670;23.354;2022-07-29T11:17:16;4.15;;;3.75;;
20621;SDS011;10470;42.670;23.354;2022-07-29T11:19:42;5.07;;;4.47;;
20621;SDS011;10470;42.670;23.354;2022-07-29T11:22:08;4.32;;;3.92;;
20621;SDS011;10470;42.670;23.354;2022-07-29T11:24:35;7.38;;;3.95;;
20621;SDS011;10470;42.670;23.354;2022-07-29T11:32:19;4.38;;;4.03;;
20621;SDS011;10470;42.670;23.354;2022-07-29T11:34:46;6.63;;;4.10;;
20621;SDS011;10470;42.670;23.354;2022-07-29T11:37:13;5.40;;;4.38;;
20621;SDS011;10470;42.670;23.354;2022-07-29T11:44:54;4.13;;;3.63;;
20621;SDS011;10470;42.670;23.354;2022-07-29T11:47:30;4.13;;;3.78;;
20621;SDS011;10470;42.670;23.354;2022-07-29T11:50:00;5.20;;;3.90;;
20621;SDS011;10470;42.670;23.354;2022-07-29T11:52:34;4.80;;;4.40;;
20621;SDS011;10470;42.670;23.354;2022-07-29T11:55:08;4.78;;;4.28;;
20621;SDS011;10470;42.670;23.354;2022-07-29T11:57:35;4.53;;;4.10;;
20621;SDS011;10470;42.670;23.354;2022-07-29T12:00:00;4.70;;;3.72;;
20621;SDS011;10470;42.670;23.354;2022-07-29T12:02:37;7.70;;;4.68;;
20621;SDS011;10470;42.670;23.354;2022-07-29T12:05:04;4.72;;;4.43;;
20621;SDS011;10470;42.670;23.354;2022-07-29T12:07:31;4.95;;;4.40;;
20621;SDS011;10470;42.670;23.354;2022-07-29T12:09:58;5.63;;;4.35;;
20621;SDS011;10470;42.670;23.354;2022-07-29T12:12:24;4.60;;;4.18;;
20621;SDS011;10470;42.670;23.354;2022-07-29T12:14:50;5.40;;;4.28;;
20621;SDS011;10470;42.670;23.354;2022-07-29T12:17:26;5.28;;;4.88;;
20621;SDS011;10470;42.670;23.354;2022-07-29T12:19:57;5.15;;;4.40;;
20621;SDS011;10470;42.670;23.354;2022-07-29T12:22:38;4.80;;;4.32;;
20621;SDS011;10470;42.670;23.354;2022-07-29T12:25:10;4.72;;;4.43;;
20621;SDS011;10470;42.670;23.354;2022-07-29T12:27:37;4.85;;;4.35;;
20621;SDS011;10470;42.670;23.354;2022-07-29T12:30:04;5.78;;;4.35;;
20621;SDS011;10470;42.670;23.354;2022-07-29T12:32:42;5.30;;;4.82;;
20621;SDS011;10470;42.670;23.354;2022-07-29T12:35:14;5.50;;;5.05;;
20621;SDS011;10470;42.670;23.354;2022-07-29T12:37:44;8.07;;;5.65;;
20621;SDS011;10470;42.670;23.354;2022-07-29T12:40:13;5.80;;;5.30;;
20621;SDS011;10470;42.670;23.354;2022-07-29T12:42:41;6.03;;;5.55;;
20621;SDS011;10470;42.670;23.354;2022-07-29T12:45:30;6.00;;;5.50;;
20621;SDS011;10470;42.670;23.354;2022-07-29T12:47:56;5.80;;;5.20;;
20621;SDS011;10470;42.670;23.354;2022-07-29T12:50:21;5.60;;;5.10;;
20621;SDS011;10470;42.670;23.354;2022-07-29T12:52:47;4.88;;;4.57;;
20621;SDS011;10470;42.670;23.354;2022-07-29T12:55:13;5.70;;;5.20;;
20621;SDS011;10470;42.670;23.354;2022-07-29T12:57:49;5.88;;;5.15;;
20621;SDS011;10470;42.670;23.354;2022-07-29T13:00:21;5.68;;;5.13;;
20621;SDS011;10470;42.670;23.354;2022-07-29T13:02:54;5.70;;;5.30;;
20621;SDS011;10470;42.670;23.354;2022-07-29T13:05:20;5.85;;;5.45;;
20621;SDS011;10470;42.670;23.354;2022-07-29T13:07:46;6.50;;;5.57;;
20621;SDS011;10470;42.670;23.354;2022-07-29T13:12:38;5.65;;;5.00;;
20621;SDS011;10470;42.670;23.354;2022-07-29T13:15:14;6.15;;;5.53;;
20621;SDS011;10470;42.670;23.354;2022-07-29T13:17:44;5.97;;;5.47;;
20621;SDS011;10470;42.670;23.354;2022-07-29T13:20:10;5.57;;;5.10;;
20621;SDS011;10470;42.670;23.354;2022-07-29T13:22:42;4.90;;;4.60;;
20621;SDS011;10470;42.670;23.354;2022-07-29T13:25:12;5.85;;;5.35;;
20621;SDS011;10470;42.670;23.354;2022-07-29T13:27:38;5.07;;;4.70;;
20621;SDS011;10470;42.670;23.354;2022-07-29T13:30:08;6.32;;;4.78;;
20621;SDS011;10470;42.670;23.354;2022-07-29T13:32:35;5.72;;;5.05;;
20621;SDS011;10470;42.670;23.354;2022-07-29T13:35:05;5.40;;;4.90;;
20621;SDS011;10470;42.670;23.354;2022-07-29T13:37:32;7.45;;;5.43;;
20621;SDS011;10470;42.670;23.354;2022-07-29T13:39:59;5.80;;;5.30;;
20621;SDS011;10470;42.670;23.354;2022-07-29T13:42:28;7.53;;;5.97;;
20621;SDS011;10470;42.670;23.354;2022-07-29T13:44:54;4.93;;;4.60;;
20621;SDS011;10470;42.670;23.354;2022-07-29T13:47:19;5.60;;;4.85;;
20621;SDS011;10470;42.670;23.354;2022-07-29T13:49:46;6.15;;;5.15;;
20621;SDS011;10470;42.670;23.354;2022-07-29T13:52:11;5.50;;;5.03;;
20621;SDS011;10470;42.670;23.354;2022-07-29T13:54:37;5.00;;;4.60;;
20621;SDS011;10470;42.670;23.354;2022-07-29T13:57:05;5.80;;;5.35;;
20621;SDS011;10470;42.670;23.354;2022-07-29T13:59:31;5.45;;;4.95;;
20621;SDS011;10470;42.670;23.354;2022-07-29T14:01:57;5.55;;;5.05;;
20621;SDS011;10470;42.670;23.354;2022-07-29T14:04:23;5.05;;;4.60;;
20621;SDS011;10470;42.670;23.354;2022-07-29T14:06:48;5.05;;;4.75;;
20621;SDS011;10470;42.670;23.354;2022-07-29T14:09:15;4.93;;;4.60;;
20621;SDS011;10470;42.670;23.354;2022-07-29T14:11:40;5.15;;;4.75;;
20621;SDS011;10470;42.670;23.354;2022-07-29T14:14:06;5.82;;;5.25;;
20621;SDS011;10470;42.670;23.354;2022-07-29T14:16:32;5.25;;;4.75;;
20621;SDS011;10470;42.670;23.354;2022-07-29T14:18:58;5.30;;;4.93;;
20621;SDS011;10470;42.670;23.354;2022-07-29T14:21:23;5.53;;;5.13;;
20621;SDS011;10470;42.670;23.354;2022-07-29T14:23:49;6.00;;;5.53;;
20621;SDS011;10470;42.670;23.354;2022-07-29T14:26:14;5.32;;;4.93;;
20621;SDS011;10470;42.670;23.354;2022-07-29T14:28:40;5.72;;;5.32;;
20621;SDS011;10470;42.670;23.354;2022-07-29T14:31:05;5.68;;;5.20;;
20621;SDS011;10470;42.670;23.354;2022-07-29T14:33:31;5.75;;;5.25;;
20621;SDS011;10470;42.670;23.354;2022-07-29T14:35:57;4.95;;;4.63;;
20621;SDS011;10470;42.670;23.354;2022-07-29T14:38:22;5.45;;;5.00;;
20621;SDS011;10470;42.670;23.354;2022-07-29T14:40:48;5.45;;;4.78;;
20621;SDS011;10470;42.670;23.354;2022-07-29T14:43:14;5.45;;;5.00;;
20621;SDS011;10470;42.670;23.354;2022-07-29T14:45:39;5.18;;;4.78;;
20621;SDS011;10470;42.670;23.354;2022-07-29T14:48:05;5.30;;;4.90;;
20621;SDS011;10470;42.670;23.354;2022-07-29T14:50:31;5.60;;;5.05;;
20621;SDS011;10470;42.670;23.354;2022-07-29T14:52:57;5.45;;;4.95;;
20621;SDS011;10470;42.670;23.354;2022-07-29T14:55:22;6.50;;;5.22;;
20621;SDS011;10470;42.670;23.354;2022-07-29T14:57:48;5.30;;;4.93;;
20621;SDS011;10470;42.670;23.354;2022-07-29T15:00:15;5.35;;;4.95;;
20621;SDS011;10470;42.670;23.354;2022-07-29T15:02:41;5.47;;;5.13;;
20621;SDS011;10470;42.670;23.354;2022-07-29T15:05:06;5.70;;;5.30;;
20621;SDS011;10470;42.670;23.354;2022-07-29T15:07:32;5.93;;;5.53;;
20621;SDS011;10470;42.670;23.354;2022-07-29T15:09:57;5.72;;;5.10;;
20621;SDS011;10470;42.670;23.354;2022-07-29T15:12:23;5.47;;;5.07;;
20621;SDS011;10470;42.670;23.354;2022-07-29T15:14:48;5.95;;;5.47;;
20621;SDS011;10470;42.670;23.354;2022-07-29T15:17:14;5.88;;;5.38;;